createdAt,value
2022-08-13T00:01:32.028Z,21.10
2022-08-13T00:04:37.682Z,21.00
2022-08-13T00:07:43.444Z,21.00
2022-08-13T00:10:48.239Z,21.00
2022-08-13T00:13:51.510Z,20.90
2022-08-13T00:16:57.838Z,20.90
2022-08-13T00:20:00.988Z,20.80
2022-08-13T00:23:21.036Z,20.80
2022-08-13T00:26:32.607Z,20.80
2022-08-13T00:29:39.599Z,20.70
2022-08-13T00:32:46.313Z,20.70
2022-08-13T00:35:55.583Z,20.70
2022-08-13T00:39:01.578Z,20.60
2022-08-13T00:42:05.664Z,20.60
2022-08-13T00:45:14.782Z,20.60
2022-08-13T00:48:37.257Z,20.60
2022-08-13T00:51:58.228Z,20.50
2022-08-13T00:55:05.064Z,20.50
2022-08-13T00:58:11.857Z,20.30
2022-08-13T01:01:35.295Z,20.20
2022-08-13T01:04:41.765Z,20.20
2022-08-13T01:07:52.379Z,20.20
2022-08-13T01:11:05.686Z,20.30
2022-08-13T01:14:13.831Z,20.30
2022-08-13T01:17:19.685Z,20.30
2022-08-13T01:20:33.477Z,20.30
2022-08-13T01:23:40.806Z,20.30
2022-08-13T01:26:47.169Z,20.30
2022-08-13T01:29:51.530Z,20.30
2022-08-13T01:32:58.050Z,20.20
2022-08-13T01:36:01.395Z,20.30
2022-08-13T01:39:15.732Z,20.30
2022-08-13T01:42:33.048Z,20.30
2022-08-13T01:45:40.377Z,20.30
2022-08-13T01:49:03.824Z,20.30
2022-08-13T01:52:12.640Z,20.30
2022-08-13T01:55:18.561Z,20.30
2022-08-13T01:58:30.504Z,20.30
2022-08-13T02:01:41.751Z,20.20
2022-08-13T02:04:55.996Z,20.30
2022-08-13T02:08:07.439Z,20.20
2022-08-13T02:11:12.364Z,20.10
2022-08-13T02:14:19.451Z,20.00
2022-08-13T02:18:03.253Z,19.90
2022-08-13T02:20:54.425Z,19.80
2022-08-13T02:24:04.546Z,19.80
2022-08-13T02:27:09.954Z,19.80
2022-08-13T02:30:18.133Z,19.70
2022-08-13T02:33:22.191Z,19.60
2022-08-13T02:36:28.274Z,19.50
2022-08-13T02:39:43.414Z,19.50
2022-08-13T02:42:47.711Z,19.60
2022-08-13T02:45:51.721Z,19.50
2022-08-13T02:48:56.152Z,19.50
2022-08-13T02:52:06.627Z,19.50
2022-08-13T02:55:13.822Z,19.50
2022-08-13T02:58:19.419Z,19.60
2022-08-13T03:01:23.495Z,19.60
2022-08-13T03:04:32.526Z,19.60
2022-08-13T03:07:45.633Z,19.60
2022-08-13T03:10:56.478Z,19.60
2022-08-13T03:14:07.575Z,19.60
2022-08-13T03:17:23.291Z,19.50
2022-08-13T03:20:26.943Z,19.50
2022-08-13T03:23:43.710Z,19.40
2022-08-13T03:26:47.719Z,19.30
2022-08-13T03:30:07.186Z,19.30
2022-08-13T03:33:18.654Z,19.30
2022-08-13T03:36:22.443Z,19.30
2022-08-13T03:39:26.980Z,19.30
2022-08-13T03:42:44.450Z,19.30
2022-08-13T03:45:57.270Z,19.30
2022-08-13T03:49:00.832Z,19.30
2022-08-13T03:52:04.359Z,19.30
2022-08-13T03:55:11.502Z,19.20
2022-08-13T03:58:16.434Z,19.20
2022-08-13T04:01:25.593Z,19.20
2022-08-13T04:04:36.051Z,19.20
2022-08-13T04:07:41.386Z,19.20
2022-08-13T04:10:51.697Z,19.10
2022-08-13T04:14:06.130Z,19.10
2022-08-13T04:17:25.599Z,19.10
2022-08-13T04:20:32.064Z,19.10
2022-08-13T04:23:37.690Z,19.10
2022-08-13T04:26:47.239Z,19.10
2022-08-13T04:29:52.345Z,19.10
2022-08-13T04:33:22.360Z,19.10
2022-08-13T04:36:20.429Z,19.10
2022-08-13T04:40:07.916Z,19.10
2022-08-13T04:42:55.954Z,19.10
2022-08-13T04:46:00.103Z,19.20
2022-08-13T04:49:04.911Z,19.20
2022-08-13T04:52:08.238Z,19.20
2022-08-13T04:55:15.748Z,19.20
2022-08-13T04:58:19.151Z,19.30
2022-08-13T05:01:53.915Z,19.30
2022-08-13T05:04:52.266Z,19.30
2022-08-13T05:07:56.983Z,19.40
2022-08-13T05:11:00.424Z,19.40
2022-08-13T05:14:12.141Z,19.30
2022-08-13T05:17:15.368Z,19.40
2022-08-13T05:20:35.794Z,19.40
2022-08-13T05:26:18.232Z,19.50
2022-08-13T05:27:09.476Z,19.60
2022-08-13T05:30:31.433Z,19.70
2022-08-13T05:33:43.935Z,19.80
2022-08-13T05:38:12.086Z,20.00
2022-08-13T05:40:36.460Z,20.20
2022-08-13T05:43:40.415Z,20.70
2022-08-13T05:46:43.712Z,21.10
2022-08-13T05:49:54.757Z,21.50
2022-08-13T05:53:10.728Z,22.00
2022-08-13T05:56:18.088Z,22.40
2022-08-13T05:59:43.373Z,22.90
2022-08-13T06:03:08.539Z,23.30
2022-08-13T06:06:16.884Z,23.90
2022-08-13T06:09:32.698Z,24.20
2022-08-13T06:12:41.725Z,24.50
2022-08-13T06:16:03.838Z,24.50
2022-08-13T06:19:16.541Z,24.20
2022-08-13T06:22:21.452Z,24.10
2022-08-13T06:25:30.937Z,24.10
2022-08-13T06:28:35.224Z,24.70
2022-08-13T06:31:47.305Z,25.00
2022-08-13T06:34:52.265Z,24.80
2022-08-13T06:37:55.758Z,25.10
2022-08-13T06:41:01.584Z,24.70
2022-08-13T06:44:06.403Z,24.40
2022-08-13T06:47:09.417Z,24.10
2022-08-13T06:50:20.776Z,23.90
2022-08-13T06:54:24.764Z,23.80
2022-08-13T06:56:59.271Z,23.60
2022-08-13T07:00:26.946Z,23.60
2022-08-13T07:03:32.609Z,23.50
2022-08-13T07:06:50.698Z,23.60
2022-08-13T07:09:57.183Z,23.70
2022-08-13T07:13:06.596Z,23.80
2022-08-13T07:16:10.972Z,23.80
2022-08-13T07:19:18.127Z,23.80
2022-08-13T07:24:37.496Z,24.00
2022-08-13T07:25:56.739Z,24.20
2022-08-13T07:29:04.647Z,24.50
2022-08-13T07:32:08.398Z,24.90
2022-08-13T07:35:16.899Z,25.30
2022-08-13T07:38:23.791Z,25.40
2022-08-13T07:41:36.667Z,25.60
2022-08-13T07:46:27.136Z,25.60
2022-08-13T07:48:32.794Z,25.70
2022-08-13T07:51:50.361Z,25.80
2022-08-13T07:54:54.673Z,26.00
2022-08-13T07:57:58.078Z,26.30
2022-08-13T08:01:02.487Z,26.80
2022-08-13T08:04:07.022Z,27.30
2022-08-13T08:07:15.358Z,27.90
2022-08-13T08:10:21.251Z,28.20
2022-08-13T08:13:25.355Z,28.20
2022-08-13T08:16:32.154Z,28.00
2022-08-13T08:20:18.398Z,27.90
2022-08-13T08:22:59.222Z,27.60
2022-08-13T08:26:08.223Z,27.50
2022-08-13T08:29:12.450Z,27.50
2022-08-13T08:32:34.941Z,27.60
2022-08-13T08:35:45.643Z,27.70
2022-08-13T08:39:18.408Z,27.90
2022-08-13T08:42:49.526Z,28.10
2022-08-13T08:46:12.557Z,28.40
2022-08-13T08:49:35.058Z,28.60
2022-08-13T08:52:57.060Z,28.60
2022-08-13T08:56:10.565Z,28.60
2022-08-13T08:59:23.143Z,28.70
2022-08-13T09:02:27.380Z,28.80
2022-08-13T09:05:44.661Z,28.90
2022-08-13T09:08:49.502Z,28.80
2022-08-13T09:11:56.665Z,28.80
2022-08-13T09:15:00.639Z,28.80
2022-08-13T09:18:04.755Z,28.80
2022-08-13T09:21:26.762Z,28.90
2022-08-13T09:24:30.449Z,28.90
2022-08-13T09:28:01.725Z,29.00
2022-08-13T09:30:58.618Z,29.00
2022-08-13T09:34:07.484Z,29.00
2022-08-13T09:37:15.591Z,28.90
2022-08-13T09:40:32.162Z,29.00
2022-08-13T09:43:48.391Z,29.00
2022-08-13T09:46:53.163Z,29.10
2022-08-13T09:50:03.815Z,29.10
2022-08-13T09:53:09.018Z,29.10
2022-08-13T09:56:15.400Z,29.20
2022-08-13T09:59:32.407Z,29.30
2022-08-13T10:02:36.010Z,29.40
2022-08-13T10:05:39.204Z,29.40
2022-08-13T10:08:54.722Z,29.50
2022-08-13T10:12:17.663Z,29.60
2022-08-13T10:15:24.478Z,29.50
2022-08-13T10:18:28.562Z,29.60
2022-08-13T10:21:31.926Z,29.70
2022-08-13T10:24:44.313Z,29.90
2022-08-13T10:27:50.356Z,30.10
2022-08-13T10:30:57.296Z,30.30
2022-08-13T10:34:04.870Z,30.30
2022-08-13T10:37:11.057Z,30.30
2022-08-13T10:40:16.237Z,30.50
2022-08-13T10:43:25.085Z,30.70
2022-08-13T10:46:32.276Z,30.90
2022-08-13T10:49:37.406Z,31.00
2022-08-13T10:52:43.835Z,31.10
2022-08-13T10:55:49.263Z,31.20
2022-08-13T10:58:53.116Z,31.50
2022-08-13T11:01:56.602Z,31.60
2022-08-13T11:05:04.294Z,31.50
2022-08-13T11:08:07.321Z,31.40
2022-08-13T11:11:37.574Z,31.30
2022-08-13T11:14:38.173Z,31.30
2022-08-13T11:17:53.179Z,31.10
2022-08-13T11:22:19.054Z,31.00
2022-08-13T11:24:37.312Z,30.90
2022-08-13T11:27:50.099Z,30.60
2022-08-13T11:30:58.399Z,30.50
2022-08-13T11:34:07.112Z,30.80
2022-08-13T11:37:12.957Z,31.10
2022-08-13T11:40:31.194Z,31.30
2022-08-13T11:43:51.316Z,31.30
2022-08-13T11:46:57.336Z,31.20
2022-08-13T11:50:00.624Z,31.30
2022-08-13T11:53:08.912Z,31.50
2022-08-13T11:56:12.298Z,31.80
2022-08-13T11:59:17.525Z,31.80
2022-08-13T12:02:29.456Z,31.60
2022-08-13T12:05:35.681Z,31.40
2022-08-13T12:09:23.001Z,31.50
2022-08-13T12:12:10.484Z,31.40
2022-08-13T12:15:15.949Z,31.20
2022-08-13T12:18:39.320Z,31.20
2022-08-13T12:21:42.702Z,31.20
2022-08-13T12:25:33.557Z,31.20
2022-08-13T12:28:21.842Z,31.20
2022-08-13T12:31:33.519Z,31.10
2022-08-13T12:34:38.383Z,31.10
2022-08-13T12:37:44.696Z,31.10
2022-08-13T12:40:48.935Z,31.10
2022-08-13T12:44:59.678Z,31.10
2022-08-13T12:47:19.262Z,31.00
2022-08-13T12:50:25.239Z,30.80
2022-08-13T12:53:53.423Z,30.60
2022-08-13T12:56:52.098Z,30.30
2022-08-13T13:00:02.564Z,30.00
2022-08-13T13:03:12.670Z,29.90
2022-08-13T13:06:33.119Z,30.00
2022-08-13T13:09:48.772Z,30.10
2022-08-13T13:12:52.687Z,30.40
2022-08-13T13:16:18.231Z,31.20
2022-08-13T13:19:22.008Z,31.50
2022-08-13T13:22:27.183Z,31.60
2022-08-13T13:25:30.734Z,31.60
2022-08-13T13:28:41.793Z,31.60
2022-08-13T13:32:39.776Z,31.60
2022-08-13T13:35:37.910Z,31.60
2022-08-13T13:38:33.574Z,31.70
2022-08-13T13:41:54.573Z,31.80
2022-08-13T13:44:58.908Z,31.60
2022-08-13T13:48:02.105Z,31.60
2022-08-13T13:51:10.934Z,31.40
2022-08-13T13:54:24.130Z,31.30
2022-08-13T13:57:38.541Z,31.20
2022-08-13T14:00:46.796Z,31.10
2022-08-13T14:03:59.104Z,31.00
2022-08-13T14:07:26.540Z,31.00
2022-08-13T14:10:32.052Z,30.90
2022-08-13T14:13:41.725Z,30.80
2022-08-13T14:16:45.182Z,30.80
2022-08-13T14:19:56.941Z,30.80
2022-08-13T14:23:02.225Z,30.90
2022-08-13T14:26:10.191Z,30.90
2022-08-13T14:29:14.631Z,30.90
2022-08-13T14:32:18.564Z,30.80
2022-08-13T14:35:26.655Z,30.70
2022-08-13T14:38:46.393Z,30.80
2022-08-13T14:41:51.186Z,30.90
2022-08-13T14:45:16.349Z,31.00
2022-08-13T14:48:25.314Z,30.90
2022-08-13T14:52:03.669Z,30.60
2022-08-13T14:54:57.250Z,30.40
2022-08-13T14:58:33.763Z,30.40
2022-08-13T15:01:26.492Z,30.40
2022-08-13T15:04:29.722Z,30.40
2022-08-13T15:07:32.789Z,30.50
2022-08-13T15:10:42.355Z,30.60
2022-08-13T15:13:56.660Z,30.50
2022-08-13T15:17:04.150Z,30.40
2022-08-13T15:20:10.115Z,30.30
2022-08-13T15:23:13.823Z,30.10
2022-08-13T15:26:18.195Z,30.00
2022-08-13T15:29:21.457Z,29.90
2022-08-13T15:32:25.010Z,29.80
2022-08-13T15:35:41.791Z,29.80
2022-08-13T15:38:45.687Z,29.80
2022-08-13T15:41:51.154Z,29.80
2022-08-13T15:44:54.932Z,29.80
2022-08-13T15:47:58.687Z,29.70
2022-08-13T15:51:03.482Z,29.80
2022-08-13T15:54:15.467Z,29.80
2022-08-13T15:57:20.239Z,29.80
2022-08-13T16:00:25.043Z,29.80
2022-08-13T16:03:38.054Z,30.00
2022-08-13T16:06:47.622Z,30.00
2022-08-13T16:09:52.177Z,30.10
2022-08-13T16:13:02.617Z,30.10
2022-08-13T16:16:06.432Z,30.00
2022-08-13T16:19:37.129Z,30.00
2022-08-13T16:22:35.285Z,30.00
2022-08-13T16:25:51.512Z,29.90
2022-08-13T16:29:01.108Z,29.90
2022-08-13T16:32:11.837Z,29.80
2022-08-13T16:35:16.256Z,29.80
2022-08-13T16:38:20.127Z,29.70
2022-08-13T16:41:25.164Z,29.70
2022-08-13T16:44:37.901Z,29.50
2022-08-13T16:47:41.647Z,29.50
2022-08-13T16:50:47.357Z,29.40
2022-08-13T16:54:35.455Z,29.30
2022-08-13T16:57:14.562Z,29.30
2022-08-13T17:00:24.927Z,29.20
2022-08-13T17:04:01.365Z,29.10
2022-08-13T17:07:39.303Z,29.20
2022-08-13T17:10:43.854Z,29.10
2022-08-13T17:13:47.610Z,29.00
2022-08-13T17:17:00.277Z,28.90
2022-08-13T17:20:03.491Z,28.80
2022-08-13T17:23:09.601Z,28.70
2022-08-13T17:26:18.653Z,28.60
2022-08-13T17:29:22.533Z,28.60
2022-08-13T17:32:29.216Z,28.50
2022-08-13T17:35:34.163Z,28.50
2022-08-13T17:38:47.017Z,28.30
2022-08-13T17:42:02.286Z,28.30
2022-08-13T17:45:29.141Z,28.30
2022-08-13T17:48:38.966Z,28.20
2022-08-13T17:51:59.323Z,28.20
2022-08-13T17:55:02.342Z,28.10
2022-08-13T17:58:09.883Z,28.10
2022-08-13T18:01:24.167Z,28.00
2022-08-13T18:04:35.555Z,27.90
2022-08-13T18:07:43.170Z,27.90
2022-08-13T18:10:51.999Z,27.90
2022-08-13T18:14:02.416Z,27.80
2022-08-13T18:17:36.183Z,27.80
2022-08-13T18:20:36.026Z,27.70
2022-08-13T18:23:41.982Z,27.60
2022-08-13T18:26:58.417Z,27.50
2022-08-13T18:30:07.485Z,27.50
2022-08-13T18:34:04.669Z,27.40
2022-08-13T18:36:46.079Z,27.30
2022-08-13T18:39:51.840Z,27.20
2022-08-13T18:42:55.400Z,27.20
2022-08-13T18:46:01.506Z,27.20
2022-08-13T18:49:05.031Z,27.10
2022-08-13T18:52:20.132Z,27.10
2022-08-13T18:55:54.097Z,27.00
2022-08-13T18:58:58.298Z,26.90
2022-08-13T19:02:01.313Z,26.80
2022-08-13T19:05:22.298Z,26.80
2022-08-13T19:08:31.880Z,26.70
2022-08-13T19:11:40.976Z,26.60
2022-08-13T19:14:53.025Z,26.50
2022-08-13T19:17:57.888Z,26.50
2022-08-13T19:21:01.240Z,26.40
2022-08-13T19:24:28.819Z,26.40
2022-08-13T19:27:34.578Z,26.40
2022-08-13T19:30:56.121Z,26.30
2022-08-13T19:33:59.160Z,26.30
2022-08-13T19:37:09.255Z,26.20
2022-08-13T19:40:36.455Z,26.20
2022-08-13T19:43:47.325Z,26.10
2022-08-13T19:46:54.053Z,26.10
2022-08-13T19:49:57.411Z,26.00
2022-08-13T19:53:04.206Z,26.00
2022-08-13T19:56:15.205Z,25.90
2022-08-13T19:59:19.892Z,25.90
2022-08-13T20:02:23.131Z,25.80
2022-08-13T20:05:51.208Z,25.70
2022-08-13T20:08:54.433Z,25.60
2022-08-13T20:11:58.790Z,25.60
2022-08-13T20:15:14.703Z,25.60
2022-08-13T20:18:33.542Z,25.60
2022-08-13T20:21:45.724Z,25.50
2022-08-13T20:25:46.445Z,25.40
2022-08-13T20:28:31.255Z,25.30
2022-08-13T20:31:41.708Z,25.20
2022-08-13T20:34:45.294Z,25.20
2022-08-13T20:37:53.155Z,25.10
2022-08-13T20:40:56.709Z,25.10
2022-08-13T20:44:03.226Z,25.10
2022-08-13T20:47:19.811Z,25.10
2022-08-13T20:50:26.266Z,25.10
2022-08-13T20:53:33.312Z,25.10
2022-08-13T20:56:53.732Z,25.00
2022-08-13T21:00:45.720Z,25.00
2022-08-13T21:03:24.983Z,25.00
2022-08-13T21:06:32.145Z,25.00
2022-08-13T21:09:46.553Z,24.90
2022-08-13T21:13:00.283Z,24.90
2022-08-13T21:16:14.198Z,24.80
2022-08-13T21:19:39.393Z,24.80
2022-08-13T21:22:46.359Z,24.70
2022-08-13T21:26:03.269Z,24.70
2022-08-13T21:29:31.771Z,24.70
2022-08-13T21:32:31.545Z,24.70
2022-08-13T21:35:36.675Z,24.70
2022-08-13T21:38:42.737Z,24.70
2022-08-13T21:41:47.825Z,24.70
2022-08-13T21:44:52.356Z,24.60
2022-08-13T21:47:58.028Z,24.60
2022-08-13T21:51:05.317Z,24.60
2022-08-13T21:54:25.408Z,24.50
2022-08-13T21:57:31.762Z,24.50
2022-08-13T22:00:36.252Z,24.50
2022-08-13T22:04:01.872Z,24.50
2022-08-13T22:07:08.812Z,24.50
2022-08-13T22:10:17.539Z,24.50
2022-08-13T22:13:23.644Z,24.50
2022-08-13T22:16:27.398Z,24.50
2022-08-13T22:19:32.702Z,24.50
2022-08-13T22:22:37.709Z,24.50
2022-08-13T22:25:41.291Z,24.50
2022-08-13T22:29:02.221Z,24.50
2022-08-13T22:32:06.010Z,24.50
2022-08-13T22:35:15.770Z,24.40
2022-08-13T22:38:37.149Z,24.40
2022-08-13T22:41:41.678Z,24.40
2022-08-13T22:44:44.846Z,24.40
2022-08-13T22:47:47.970Z,24.30
2022-08-13T22:50:52.743Z,24.30
2022-08-13T22:53:59.121Z,24.30
2022-08-13T22:57:02.483Z,24.30
2022-08-13T23:00:09.248Z,24.30
2022-08-13T23:03:14.227Z,24.30
2022-08-13T23:06:32.993Z,24.30
2022-08-13T23:09:43.408Z,24.30
2022-08-13T23:12:47.098Z,24.20
2022-08-13T23:15:52.930Z,24.20
2022-08-13T23:18:58.819Z,24.20
2022-08-13T23:22:03.773Z,24.10
2022-08-13T23:25:08.534Z,24.10
2022-08-13T23:28:12.808Z,24.00
2022-08-13T23:31:18.685Z,23.90
2022-08-13T23:34:23.115Z,23.90
2022-08-13T23:37:31.943Z,23.80
2022-08-13T23:40:36.547Z,23.80
2022-08-13T23:43:40.210Z,23.70
2022-08-13T23:46:45.744Z,23.70
2022-08-13T23:49:52.045Z,23.70
2022-08-13T23:52:56.382Z,23.60
2022-08-13T23:56:02.446Z,23.60
2022-08-13T23:59:05.641Z,23.60
